Time;durP1;ratioP1;P1;durP2;ratioP2;P2;SDS_P1;SDS_P2;PMS_P1;PMS_P2;Temp;Humidity;BMP_temperature;BMP_pressure;BME280_temperature;BME280_humidity;BME280_pressure;Samples;Min_cycle;Max_cycle;Signal;HPM_P1;HPM_P2
2020/12/02 00:00:09;;;;;;;11.52;3.15;;;;;;;;;;5059197;28;20186;-79
2020/12/02 00:02:39;;;;;;;8.85;2.85;;;;;;;;;;5057988;28;20185;-80
2020/12/02 00:05:11;;;;;;;7.85;2.72;;;;;;;;;;5061242;28;20219;-79
2020/12/02 00:07:38;;;;;;;9.50;2.70;;;;;;;;;;5061668;28;20675;-78
2020/12/02 00:10:05;;;;;;;12.90;2.63;;;;;;;;;;5058616;28;20224;-80
2020/12/02 00:12:31;;;;;;;11.88;3.45;;;;;;;;;;5052783;28;20182;-80
2020/12/02 00:14:57;;;;;;;9.50;2.33;;;;;;;;;;5057434;28;20186;-80
2020/12/02 00:17:23;;;;;;;7.85;2.65;;;;;;;;;;5063473;28;20210;-78
2020/12/02 00:19:50;;;;;;;8.40;2.80;;;;;;;;;;5071650;28;20234;-80
2020/12/02 00:22:18;;;;;;;16.10;3.45;;;;;;;;;;5065541;28;20193;-80
2020/12/02 00:24:44;;;;;;;11.45;2.95;;;;;;;;;;5051937;28;20261;-80
2020/12/02 00:27:16;;;;;;;9.15;3.25;;;;;;;;;;5067214;28;20199;-80
2020/12/02 00:29:43;;;;;;;6.95;2.70;;;;;;;;;;5065161;28;20181;-80
2020/12/02 00:32:20;;;;;;;9.02;3.05;;;;;;;;;;5051573;28;20177;-80
2020/12/02 00:34:46;;;;;;;8.65;2.83;;;;;;;;;;5066582;28;20196;-80
2020/12/02 00:37:12;;;;;;;11.23;3.15;;;;;;;;;;5064335;28;20296;-79
2020/12/02 00:39:38;;;;;;;7.68;2.88;;;;;;;;;;5066391;28;20263;-79
2020/12/02 00:42:04;;;;;;;10.50;4.03;;;;;;;;;;5061711;28;20185;-79
2020/12/02 00:44:30;;;;;;;12.30;2.85;;;;;;;;;;5065044;28;20181;-80
2020/12/02 00:46:56;;;;;;;8.75;3.42;;;;;;;;;;5065721;28;20185;-79
2020/12/02 00:49:22;;;;;;;7.50;3.13;;;;;;;;;;5066297;28;20181;-79
2020/12/02 00:51:48;;;;;;;15.60;4.85;;;;;;;;;;5066725;28;20185;-80
2020/12/02 00:54:14;;;;;;;6.72;2.30;;;;;;;;;;5055467;28;20197;-79
2020/12/02 00:56:43;;;;;;;12.45;2.65;;;;;;;;;;5055619;28;20201;-80
2020/12/02 00:59:09;;;;;;;12.77;3.47;;;;;;;;;;5056588;28;20180;-79
2020/12/02 01:02:01;;;;;;;7.27;2.77;;;;;;;;;;5064686;28;20204;-79
2020/12/02 01:04:27;;;;;;;15.57;3.97;;;;;;;;;;5062013;28;20945;-80
2020/12/02 01:06:54;;;;;;;6.95;2.35;;;;;;;;;;5064849;28;20254;-79
2020/12/02 01:09:21;;;;;;;11.23;4.55;;;;;;;;;;5057659;28;20271;-80
2020/12/02 01:11:47;;;;;;;10.35;2.63;;;;;;;;;;5058166;28;20190;-79
2020/12/02 01:14:16;;;;;;;13.85;3.00;;;;;;;;;;5059443;28;20195;-80
2020/12/02 01:16:43;;;;;;;6.97;2.63;;;;;;;;;;5085473;28;20232;-80
2020/12/02 01:19:10;;;;;;;10.75;2.50;;;;;;;;;;5052344;28;20208;-80
2020/12/02 01:21:38;;;;;;;9.52;2.70;;;;;;;;;;5061599;28;20197;-80
2020/12/02 01:24:07;;;;;;;11.30;3.28;;;;;;;;;;5064240;28;20265;-80
2020/12/02 01:26:39;;;;;;;6.03;2.20;;;;;;;;;;5065561;28;20192;-80
2020/12/02 01:29:07;;;;;;;14.38;2.97;;;;;;;;;;5064408;28;20185;-80
2020/12/02 01:31:33;;;;;;;10.20;1.85;;;;;;;;;;5064685;28;20751;-80
2020/12/02 01:33:59;;;;;;;8.48;2.47;;;;;;;;;;5065460;28;20193;-79
2020/12/02 01:36:41;;;;;;;13.27;3.03;;;;;;;;;;5051414;28;20232;-80
2020/12/02 01:39:08;;;;;;;8.20;2.22;;;;;;;;;;5047193;28;20479;-80
2020/12/02 01:41:34;;;;;;;4.95;2.65;;;;;;;;;;5063193;28;20357;-80
2020/12/02 01:44:00;;;;;;;8.15;2.08;;;;;;;;;;5064410;28;20182;-80
2020/12/02 01:46:33;;;;;;;9.38;3.08;;;;;;;;;;5065575;28;20180;-80
2020/12/02 01:49:20;;;;;;;12.73;2.30;;;;;;;;;;5064110;28;20177;-79
2020/12/02 01:51:53;;;;;;;8.43;3.47;;;;;;;;;;5064024;28;20266;-80
2020/12/02 01:54:30;;;;;;;3.25;1.73;;;;;;;;;;5061302;28;20685;-80
2020/12/02 01:56:59;;;;;;;4.25;1.60;;;;;;;;;;5056252;28;20300;-82
2020/12/02 01:59:34;;;;;;;12.45;2.95;;;;;;;;;;5054450;28;20182;-80
2020/12/02 02:02:10;;;;;;;12.13;3.08;;;;;;;;;;5055951;28;20181;-80
2020/12/02 02:04:55;;;;;;;8.23;2.22;;;;;;;;;;5051202;28;20181;-79
2020/12/02 02:07:23;;;;;;;8.25;2.28;;;;;;;;;;5063571;28;20187;-80
2020/12/02 02:09:51;;;;;;;14.20;2.78;;;;;;;;;;5060739;28;20177;-81
2020/12/02 02:12:32;;;;;;;6.00;2.33;;;;;;;;;;5062967;28;20671;-80
2020/12/02 02:15:17;;;;;;;9.68;2.47;;;;;;;;;;5060783;28;20177;-80
2020/12/02 02:17:43;;;;;;;6.18;1.95;;;;;;;;;;5068971;28;20212;-79
2020/12/02 02:20:09;;;;;;;6.25;2.28;;;;;;;;;;5070256;28;20181;-80
2020/12/02 02:22:35;;;;;;;11.88;2.83;;;;;;;;;;5062847;28;20173;-80
2020/12/02 02:25:02;;;;;;;9.13;2.53;;;;;;;;;;5049561;28;20189;-83
2020/12/02 02:27:29;;;;;;;5.93;2.45;;;;;;;;;;5074243;28;20196;-80
2020/12/02 02:29:56;;;;;;;11.15;2.90;;;;;;;;;;5065778;28;20208;-80
2020/12/02 02:32:24;;;;;;;6.80;2.20;;;;;;;;;;5064476;28;20193;-80
2020/12/02 02:34:54;;;;;;;6.30;2.60;;;;;;;;;;5064880;28;20217;-80
2020/12/02 02:37:22;;;;;;;10.30;3.90;;;;;;;;;;5052437;28;20560;-79
2020/12/02 02:39:48;;;;;;;12.90;3.00;;;;;;;;;;5051113;28;20181;-80
2020/12/02 02:42:23;;;;;;;8.60;3.22;;;;;;;;;;5053973;28;20185;-82
2020/12/02 02:44:50;;;;;;;12.23;4.20;;;;;;;;;;5061837;28;20187;-81
2020/12/02 02:47:15;;;;;;;11.85;2.80;;;;;;;;;;5064310;28;20674;-81
2020/12/02 02:49:42;;;;;;;7.67;2.07;;;;;;;;;;5050731;28;20181;-80
2020/12/02 02:52:08;;;;;;;8.38;2.20;;;;;;;;;;5061948;28;20446;-80
2020/12/02 02:54:34;;;;;;;6.72;2.20;;;;;;;;;;5048949;28;20200;-81
2020/12/02 02:57:00;;;;;;;7.88;2.00;;;;;;;;;;5063617;28;20684;-81
2020/12/02 02:59:26;;;;;;;13.32;2.70;;;;;;;;;;5058866;28;20182;-80
2020/12/02 03:01:52;;;;;;;7.65;2.08;;;;;;;;;;5052429;28;20173;-81
2020/12/02 03:04:18;;;;;;;9.38;2.58;;;;;;;;;;5043526;28;20178;-80
2020/12/02 03:06:44;;;;;;;14.70;3.67;;;;;;;;;;5052717;28;20192;-79
2020/12/02 03:09:11;;;;;;;8.90;2.37;;;;;;;;;;5054036;28;20193;-81
2020/12/02 03:11:38;;;;;;;13.18;1.98;;;;;;;;;;5054191;28;20466;-80
2020/12/02 03:14:04;;;;;;;10.07;2.45;;;;;;;;;;5062525;28;20176;-82
2020/12/02 03:16:53;;;;;;;10.10;2.22;;;;;;;;;;5050609;28;20592;-80
2020/12/02 03:19:22;;;;;;;7.20;2.22;;;;;;;;;;5054030;28;20193;-80
2020/12/02 03:21:52;;;;;;;12.63;2.10;;;;;;;;;;5061945;28;20211;-79
2020/12/02 03:24:18;;;;;;;6.35;2.15;;;;;;;;;;5064541;28;20196;-81
2020/12/02 03:26:46;;;;;;;12.40;3.28;;;;;;;;;;5062668;28;20189;-81
2020/12/02 03:29:12;;;;;;;7.30;2.53;;;;;;;;;;5061666;28;20200;-81
2020/12/02 03:31:39;;;;;;;11.63;2.70;;;;;;;;;;5058441;28;20185;-81
2020/12/02 03:34:08;;;;;;;10.93;3.60;;;;;;;;;;5062425;28;20244;-80
2020/12/02 03:36:34;;;;;;;4.35;2.70;;;;;;;;;;5062002;28;20535;-80
2020/12/02 03:39:00;;;;;;;5.47;2.20;;;;;;;;;;5062642;28;20217;-81
2020/12/02 03:41:26;;;;;;;6.85;2.58;;;;;;;;;;5057963;28;20190;-80
2020/12/02 03:43:52;;;;;;;4.90;2.00;;;;;;;;;;5053471;28;20177;-80
2020/12/02 03:46:18;;;;;;;5.05;2.47;;;;;;;;;;5061603;28;20197;-80
2020/12/02 03:48:44;;;;;;;7.80;2.17;;;;;;;;;;5062621;28;20189;-81
2020/12/02 03:51:10;;;;;;;6.72;2.50;;;;;;;;;;5061249;28;20180;-80
2020/12/02 03:53:36;;;;;;;8.52;2.25;;;;;;;;;;5064075;28;20234;-80
2020/12/02 03:56:02;;;;;;;7.25;2.95;;;;;;;;;;5062937;28;20260;-81
2020/12/02 03:58:28;;;;;;;9.48;2.60;;;;;;;;;;5060160;28;20184;-80
2020/12/02 04:00:54;;;;;;;6.38;1.85;;;;;;;;;;5062593;28;20192;-81
2020/12/02 04:03:20;;;;;;;7.53;2.10;;;;;;;;;;5061032;28;20177;-81
2020/12/02 04:05:46;;;;;;;10.50;2.42;;;;;;;;;;5060975;28;20189;-80
2020/12/02 04:08:12;;;;;;;8.20;2.38;;;;;;;;;;5061509;28;20181;-80
2020/12/02 04:10:38;;;;;;;5.55;2.20;;;;;;;;;;5049539;28;20188;-81
2020/12/02 04:13:05;;;;;;;14.45;2.30;;;;;;;;;;5061420;28;20184;-80
2020/12/02 04:15:31;;;;;;;6.50;1.85;;;;;;;;;;5061603;28;20549;-83
2020/12/02 04:17:57;;;;;;;9.63;3.17;;;;;;;;;;5062986;28;21166;-82
2020/12/02 04:20:23;;;;;;;6.47;3.25;;;;;;;;;;5062757;28;20717;-81
2020/12/02 04:22:49;;;;;;;10.02;2.20;;;;;;;;;;5055894;28;20178;-81
2020/12/02 04:25:15;;;;;;;5.43;2.30;;;;;;;;;;5063592;28;20169;-80
2020/12/02 04:27:41;;;;;;;6.18;1.85;;;;;;;;;;5048551;28;20275;-81
2020/12/02 04:30:08;;;;;;;7.47;1.95;;;;;;;;;;5058602;28;20181;-81
2020/12/02 04:32:34;;;;;;;12.57;3.17;;;;;;;;;;5055384;28;20181;-81
2020/12/02 04:35:02;;;;;;;5.63;1.95;;;;;;;;;;5052355;28;20239;-81
2020/12/02 04:37:32;;;;;;;6.93;2.20;;;;;;;;;;5081695;28;20200;-81
2020/12/02 04:39:59;;;;;;;6.65;2.42;;;;;;;;;;5051357;28;20190;-81
2020/12/02 04:42:31;;;;;;;11.15;2.15;;;;;;;;;;5060709;28;20185;-80
2020/12/02 04:44:58;;;;;;;10.65;2.85;;;;;;;;;;5061568;28;20256;-80
2020/12/02 04:47:31;;;;;;;8.88;2.40;;;;;;;;;;5060291;28;20190;-80
2020/12/02 04:49:58;;;;;;;10.07;3.10;;;;;;;;;;5049142;28;20593;-81
2020/12/02 04:52:24;;;;;;;7.75;2.40;;;;;;;;;;5060755;28;20188;-81
2020/12/02 04:54:50;;;;;;;7.38;2.72;;;;;;;;;;5061129;28;20203;-80
2020/12/02 04:57:16;;;;;;;9.38;3.13;;;;;;;;;;5051062;28;20605;-82
2020/12/02 04:59:43;;;;;;;9.57;2.47;;;;;;;;;;5051921;28;20209;-81
2020/12/02 05:02:22;;;;;;;9.13;2.40;;;;;;;;;;5057351;28;20204;-81
2020/12/02 05:04:54;;;;;;;7.85;2.95;;;;;;;;;;5065294;28;20234;-79
2020/12/02 05:07:20;;;;;;;8.05;3.00;;;;;;;;;;5051358;28;20177;-80
2020/12/02 05:10:06;;;;;;;7.30;2.60;;;;;;;;;;5050547;28;20189;-81
2020/12/02 05:12:35;;;;;;;4.15;2.03;;;;;;;;;;5051381;28;20216;-81
2020/12/02 05:15:27;;;;;;;11.43;2.80;;;;;;;;;;5055419;28;20185;-80
2020/12/02 05:18:03;;;;;;;11.18;3.33;;;;;;;;;;5060345;28;20247;-80
2020/12/02 05:20:29;;;;;;;3.88;2.30;;;;;;;;;;5064677;28;20423;-81
2020/12/02 05:22:55;;;;;;;5.50;2.35;;;;;;;;;;5066358;28;20462;-81
2020/12/02 05:25:34;;;;;;;4.78;2.78;;;;;;;;;;5051522;28;20185;-81
2020/12/02 05:28:02;;;;;;;11.90;3.75;;;;;;;;;;5065746;28;20185;-81
2020/12/02 05:30:33;;;;;;;8.77;2.58;;;;;;;;;;5066125;28;20263;-83
2020/12/02 05:33:14;;;;;;;7.38;2.75;;;;;;;;;;5063941;28;20242;-81
2020/12/02 05:35:45;;;;;;;8.57;2.30;;;;;;;;;;5064211;28;20327;-81
2020/12/02 05:38:13;;;;;;;13.20;3.88;;;;;;;;;;5063707;28;20649;-81
2020/12/02 05:40:40;;;;;;;15.55;2.38;;;;;;;;;;5053462;28;20173;-81
2020/12/02 05:43:20;;;;;;;7.95;3.63;;;;;;;;;;5063032;28;20188;-81
2020/12/02 05:45:48;;;;;;;9.77;3.40;;;;;;;;;;5064598;28;20563;-81
2020/12/02 05:48:19;;;;;;;4.05;2.50;;;;;;;;;;5055770;28;20192;-81
2020/12/02 05:50:45;;;;;;;9.00;3.95;;;;;;;;;;5057131;28;20456;-81
2020/12/02 05:53:38;;;;;;;8.00;2.30;;;;;;;;;;5065056;28;20189;-81
2020/12/02 05:56:04;;;;;;;11.48;2.80;;;;;;;;;;5062310;28;20189;-81
2020/12/02 05:58:32;;;;;;;9.00;3.05;;;;;;;;;;5043512;28;20185;-80
2020/12/02 06:00:58;;;;;;;8.40;2.97;;;;;;;;;;5060297;28;20173;-81
2020/12/02 06:03:31;;;;;;;4.65;2.45;;;;;;;;;;5062734;28;20177;-81
2020/12/02 06:06:01;;;;;;;6.15;2.60;;;;;;;;;;5063505;28;20207;-81
2020/12/02 06:08:41;;;;;;;8.65;2.60;;;;;;;;;;5062865;28;20196;-81
2020/12/02 06:11:16;;;;;;;11.98;2.90;;;;;;;;;;5062938;28;20180;-80
2020/12/02 06:13:53;;;;;;;8.63;2.47;;;;;;;;;;5063266;28;20180;-80
2020/12/02 06:16:25;;;;;;;8.00;2.83;;;;;;;;;;5049207;28;20181;-80
2020/12/02 06:18:54;;;;;;;6.20;2.20;;;;;;;;;;5052611;28;20310;-81
2020/12/02 06:21:40;;;;;;;5.90;2.63;;;;;;;;;;5063634;28;20169;-80
2020/12/02 06:24:07;;;;;;;4.50;2.72;;;;;;;;;;5051320;28;20242;-80
2020/12/02 06:26:34;;;;;;;7.30;3.17;;;;;;;;;;5061610;28;20197;-81
2020/12/02 06:29:00;;;;;;;8.57;3.08;;;;;;;;;;5062573;28;20178;-79
2020/12/02 06:31:28;;;;;;;9.00;2.90;;;;;;;;;;5063286;28;20184;-80
2020/12/02 06:33:54;;;;;;;10.07;3.65;;;;;;;;;;5049357;28;20185;-80
2020/12/02 06:36:38;;;;;;;9.48;2.30;;;;;;;;;;5062641;28;20551;-81
2020/12/02 06:39:11;;;;;;;25.80;9.73;;;;;;;;;;5062175;28;20261;-80
2020/12/02 06:41:44;;;;;;;11.80;2.60;;;;;;;;;;5062395;28;20813;-80
2020/12/02 06:44:18;;;;;;;6.20;2.80;;;;;;;;;;5061375;28;20181;-80
2020/12/02 06:46:56;;;;;;;14.40;3.40;;;;;;;;;;5064639;28;20547;-80
2020/12/02 06:49:23;;;;;;;5.93;3.13;;;;;;;;;;5062555;28;20188;-80
2020/12/02 06:51:57;;;;;;;8.55;2.95;;;;;;;;;;5064204;28;20185;-80
2020/12/02 06:54:24;;;;;;;5.75;3.30;;;;;;;;;;5056866;28;20501;-80
2020/12/02 06:56:54;;;;;;;15.57;7.70;;;;;;;;;;5058591;28;20209;-80
2020/12/02 06:59:20;;;;;;;15.60;5.55;;;;;;;;;;5054063;28;20219;-80
2020/12/02 07:01:46;;;;;;;8.43;3.00;;;;;;;;;;5055863;28;20234;-79
2020/12/02 07:04:18;;;;;;;8.77;3.25;;;;;;;;;;5057724;28;20209;-80
2020/12/02 07:06:44;;;;;;;6.35;3.30;;;;;;;;;;5062786;28;20188;-80
2020/12/02 07:09:13;;;;;;;9.18;2.95;;;;;;;;;;5056343;28;20178;-80
2020/12/02 07:11:47;;;;;;;18.25;6.20;;;;;;;;;;5052935;28;20190;-80
2020/12/02 07:14:16;;;;;;;7.95;2.80;;;;;;;;;;5054781;28;20218;-81
2020/12/02 07:16:42;;;;;;;7.60;3.80;;;;;;;;;;5052044;28;20201;-80
2020/12/02 07:19:12;;;;;;;8.05;3.78;;;;;;;;;;5058343;28;20252;-80
2020/12/02 07:21:47;;;;;;;9.52;3.95;;;;;;;;;;5059115;28;20206;-79
2020/12/02 07:24:20;;;;;;;6.78;3.75;;;;;;;;;;5049175;28;20193;-79
2020/12/02 07:26:47;;;;;;;7.72;3.05;;;;;;;;;;5055448;28;20196;-81
2020/12/02 07:29:17;;;;;;;11.95;2.75;;;;;;;;;;5053775;28;20235;-79
2020/12/02 07:31:43;;;;;;;9.05;2.90;;;;;;;;;;5056204;28;20215;-79
2020/12/02 07:34:14;;;;;;;12.63;3.50;;;;;;;;;;5057043;28;20176;-78
2020/12/02 07:36:40;;;;;;;13.75;4.13;;;;;;;;;;5051990;28;20229;-79
2020/12/02 07:39:11;;;;;;;6.88;2.67;;;;;;;;;;5051893;28;20177;-77
2020/12/02 07:41:45;;;;;;;6.20;2.72;;;;;;;;;;5061007;28;20173;-78
2020/12/02 07:44:11;;;;;;;11.43;3.35;;;;;;;;;;5052761;28;20193;-77
2020/12/02 07:46:37;;;;;;;11.75;3.92;;;;;;;;;;5060660;28;20196;-77
2020/12/02 07:49:05;;;;;;;7.50;3.20;;;;;;;;;;5052498;28;20181;-78
2020/12/02 07:51:35;;;;;;;7.20;3.00;;;;;;;;;;5061667;28;20210;-78
2020/12/02 07:54:01;;;;;;;10.82;3.15;;;;;;;;;;5061787;28;20185;-78
2020/12/02 07:56:29;;;;;;;14.07;3.75;;;;;;;;;;5061960;28;20277;-78
2020/12/02 07:58:56;;;;;;;9.68;2.97;;;;;;;;;;5060341;28;20189;-78
2020/12/02 08:01:25;;;;;;;5.97;3.75;;;;;;;;;;5056511;28;20177;-77
2020/12/02 08:03:52;;;;;;;12.88;3.53;;;;;;;;;;5056144;28;20211;-78
2020/12/02 08:06:18;;;;;;;10.30;3.90;;;;;;;;;;5063082;28;20192;-77
2020/12/02 08:08:44;;;;;;;9.13;3.55;;;;;;;;;;5055805;28;20173;-77
2020/12/02 08:11:14;;;;;;;10.27;3.87;;;;;;;;;;5050689;28;20192;-77
2020/12/02 08:13:51;;;;;;;8.43;3.33;;;;;;;;;;5049664;28;20432;-78
2020/12/02 08:16:25;;;;;;;5.70;3.70;;;;;;;;;;5060419;28;20235;-77
2020/12/02 08:18:52;;;;;;;7.55;3.00;;;;;;;;;;5046460;28;20186;-76
2020/12/02 08:21:19;;;;;;;9.57;3.38;;;;;;;;;;5056762;28;20204;-76
2020/12/02 08:24:03;;;;;;;17.25;3.65;;;;;;;;;;5052352;28;20179;-76
2020/12/02 08:26:30;;;;;;;12.00;3.45;;;;;;;;;;5057359;28;20203;-76
2020/12/02 08:29:01;;;;;;;11.45;3.80;;;;;;;;;;5053247;28;20216;-75
2020/12/02 08:31:28;;;;;;;7.88;3.72;;;;;;;;;;5049212;28;20295;-76
2020/12/02 08:34:15;;;;;;;8.68;4.10;;;;;;;;;;5053929;28;20439;-76
2020/12/02 08:36:46;;;;;;;7.68;4.32;;;;;;;;;;5058099;28;20228;-77
2020/12/02 08:39:12;;;;;;;10.23;4.00;;;;;;;;;;5064900;28;20284;-76
2020/12/02 08:41:48;;;;;;;11.20;5.40;;;;;;;;;;5064293;28;20184;-76
2020/12/02 08:44:16;;;;;;;9.13;4.28;;;;;;;;;;5055459;28;20196;-76
2020/12/02 08:46:56;;;;;;;6.70;3.95;;;;;;;;;;5062552;28;20192;-76
2020/12/02 08:49:32;;;;;;;8.43;3.85;;;;;;;;;;5087824;28;20180;-76
2020/12/02 08:51:58;;;;;;;8.98;3.97;;;;;;;;;;5055373;28;20188;-76
2020/12/02 08:54:25;;;;;;;14.13;4.55;;;;;;;;;;5063766;28;20192;-76
2020/12/02 08:56:53;;;;;;;5.55;3.65;;;;;;;;;;5063783;28;20685;-76
2020/12/02 08:59:19;;;;;;;8.55;3.60;;;;;;;;;;5060806;28;20208;-76
2020/12/02 09:01:45;;;;;;;11.25;3.88;;;;;;;;;;5063581;28;20200;-76
2020/12/02 09:04:14;;;;;;;6.38;3.90;;;;;;;;;;5063522;28;20181;-75
2020/12/02 09:06:40;;;;;;;8.63;4.25;;;;;;;;;;5061158;28;20606;-76
2020/12/02 09:09:06;;;;;;;5.78;3.47;;;;;;;;;;5056191;28;20663;-75
2020/12/02 09:11:36;;;;;;;11.75;4.30;;;;;;;;;;5058494;28;20642;-76
2020/12/02 09:14:03;;;;;;;9.45;3.63;;;;;;;;;;5062388;28;20212;-75
2020/12/02 09:16:39;;;;;;;9.73;3.95;;;;;;;;;;5059425;28;20209;-75
2020/12/02 09:19:06;;;;;;;9.93;4.60;;;;;;;;;;5055785;28;20185;-76
2020/12/02 09:21:32;;;;;;;8.48;3.78;;;;;;;;;;5064152;28;20181;-75
2020/12/02 09:23:59;;;;;;;7.70;4.00;;;;;;;;;;5063853;28;20193;-76
2020/12/02 09:26:27;;;;;;;9.75;5.30;;;;;;;;;;5063317;28;20193;-75
2020/12/02 09:28:53;;;;;;;6.55;3.58;;;;;;;;;;5054339;28;20180;-75
2020/12/02 09:31:20;;;;;;;6.78;4.00;;;;;;;;;;5063016;28;20205;-75
2020/12/02 09:33:50;;;;;;;10.48;4.60;;;;;;;;;;5050346;28;20206;-76
2020/12/02 09:36:16;;;;;;;8.30;3.58;;;;;;;;;;5074324;28;20235;-76
2020/12/02 09:38:43;;;;;;;8.88;4.45;;;;;;;;;;5060678;28;20351;-76
2020/12/02 09:41:19;;;;;;;6.63;3.72;;;;;;;;;;5056009;28;20210;-75
2020/12/02 09:44:09;;;;;;;6.63;3.75;;;;;;;;;;5057119;28;20192;-76
2020/12/02 09:46:35;;;;;;;11.75;3.47;;;;;;;;;;5050681;28;20324;-76
2020/12/02 09:49:01;;;;;;;7.80;3.92;;;;;;;;;;5062723;28;20271;-75
2020/12/02 09:51:30;;;;;;;10.70;4.07;;;;;;;;;;5062922;28;20551;-76
2020/12/02 09:53:57;;;;;;;4.25;3.80;;;;;;;;;;5063727;28;20288;-76
2020/12/02 09:56:25;;;;;;;6.28;3.75;;;;;;;;;;5052813;28;20192;-76
2020/12/02 09:58:51;;;;;;;8.50;3.65;;;;;;;;;;5063524;28;20185;-76
2020/12/02 10:01:22;;;;;;;6.30;3.40;;;;;;;;;;5053813;28;20188;-75
2020/12/02 10:03:51;;;;;;;9.18;4.10;;;;;;;;;;5063421;28;20617;-75
2020/12/02 10:06:32;;;;;;;7.30;3.72;;;;;;;;;;5054955;28;20213;-75
2020/12/02 10:09:18;;;;;;;5.80;4.85;;;;;;;;;;5062224;28;20185;-75
2020/12/02 10:11:44;;;;;;;7.93;4.20;;;;;;;;;;5062357;28;21255;-76
2020/12/02 10:14:26;;;;;;;8.05;3.60;;;;;;;;;;5062014;28;20185;-75
2020/12/02 10:16:55;;;;;;;4.72;3.33;;;;;;;;;;5061549;28;20196;-75
2020/12/02 10:19:30;;;;;;;9.02;4.10;;;;;;;;;;5057907;28;20272;-76
2020/12/02 10:22:08;;;;;;;5.68;4.93;;;;;;;;;;5050567;28;20177;-75
2020/12/02 10:24:53;;;;;;;5.35;3.85;;;;;;;;;;5043467;28;20185;-76
2020/12/02 10:27:38;;;;;;;6.97;3.50;;;;;;;;;;5061853;28;20195;-75
2020/12/02 10:30:17;;;;;;;5.20;4.57;;;;;;;;;;5054629;28;20184;-76
2020/12/02 10:33:02;;;;;;;4.95;3.78;;;;;;;;;;5056734;28;20181;-76
2020/12/02 10:35:29;;;;;;;5.40;3.88;;;;;;;;;;5051038;28;20706;-75
2020/12/02 10:37:56;;;;;;;7.85;3.88;;;;;;;;;;5050598;28;20207;-75
2020/12/02 10:40:22;;;;;;;5.60;3.63;;;;;;;;;;5062336;28;20187;-75
2020/12/02 10:43:07;;;;;;;8.98;4.30;;;;;;;;;;5058180;28;20689;-75
2020/12/02 10:45:33;;;;;;;9.13;3.95;;;;;;;;;;5061828;28;20513;-75
2020/12/02 10:48:17;;;;;;;8.53;3.87;;;;;;;;;;5062216;28;20268;-76
2020/12/02 10:50:44;;;;;;;5.50;2.83;;;;;;;;;;5057841;28;20424;-78
2020/12/02 10:53:11;;;;;;;6.95;3.78;;;;;;;;;;5052691;28;20192;-78
2020/12/02 10:55:38;;;;;;;3.83;3.13;;;;;;;;;;5060583;28;20276;-79
2020/12/02 10:58:06;;;;;;;4.00;2.78;;;;;;;;;;5056472;28;20201;-79
2020/12/02 11:00:33;;;;;;;6.25;3.78;;;;;;;;;;5057526;28;20184;-77
2020/12/02 11:03:12;;;;;;;7.05;3.28;;;;;;;;;;5060455;28;20188;-77
2020/12/02 11:05:38;;;;;;;4.05;3.35;;;;;;;;;;5058466;28;20189;-77
2020/12/02 11:08:12;;;;;;;5.10;3.45;;;;;;;;;;5053441;28;20177;-77
2020/12/02 11:10:38;;;;;;;4.68;3.10;;;;;;;;;;5056115;28;20177;-76
2020/12/02 11:13:33;;;;;;;5.03;3.17;;;;;;;;;;5052687;28;20187;-77
2020/12/02 11:15:59;;;;;;;5.63;4.22;;;;;;;;;;5050646;28;20489;-75
2020/12/02 11:18:28;;;;;;;7.47;4.73;;;;;;;;;;5054581;28;20213;-76
2020/12/02 11:20:57;;;;;;;7.45;4.20;;;;;;;;;;5048491;28;20457;-74
2020/12/02 11:23:42;;;;;;;6.93;3.90;;;;;;;;;;5055558;28;20169;-75
2020/12/02 11:26:14;;;;;;;5.78;3.65;;;;;;;;;;5055668;28;20268;-75
2020/12/02 11:28:41;;;;;;;5.25;3.60;;;;;;;;;;5056372;28;20184;-76
2020/12/02 11:31:17;;;;;;;6.95;3.28;;;;;;;;;;5061610;28;20179;-76
2020/12/02 11:33:53;;;;;;;5.82;3.50;;;;;;;;;;5061628;28;20198;-77
2020/12/02 11:36:24;;;;;;;5.17;3.40;;;;;;;;;;5046815;28;20225;-76
2020/12/02 11:38:50;;;;;;;6.65;4.20;;;;;;;;;;5059350;28;20169;-76
2020/12/02 11:41:39;;;;;;;6.93;4.70;;;;;;;;;;5061557;28;20672;-75
2020/12/02 11:44:11;;;;;;;8.25;6.47;;;;;;;;;;5054946;28;20487;-76
2020/12/02 11:46:37;;;;;;;6.47;4.63;;;;;;;;;;5061447;28;20188;-76
2020/12/02 11:49:07;;;;;;;12.07;5.25;;;;;;;;;;5047999;28;20193;-76
2020/12/02 11:51:33;;;;;;;11.00;5.25;;;;;;;;;;5058450;28;20177;-76
2020/12/02 11:54:10;;;;;;;9.38;5.35;;;;;;;;;;5057448;28;20265;-76
2020/12/02 11:56:39;;;;;;;8.48;4.78;;;;;;;;;;5057701;28;20258;-76
2020/12/02 11:59:08;;;;;;;7.55;6.03;;;;;;;;;;5062118;28;20233;-76
2020/12/02 12:01:37;;;;;;;5.95;5.22;;;;;;;;;;5053182;28;20208;-76
2020/12/02 12:04:23;;;;;;;7.82;5.75;;;;;;;;;;5060920;28;20267;-76
2020/12/02 12:06:52;;;;;;;6.50;5.07;;;;;;;;;;5061269;28;20189;-76
2020/12/02 12:09:22;;;;;;;5.90;4.70;;;;;;;;;;5053105;28;20205;-77
2020/12/02 12:11:48;;;;;;;8.27;4.28;;;;;;;;;;5049593;28;20224;-75
2020/12/02 12:14:18;;;;;;;7.53;4.88;;;;;;;;;;5058336;28;20195;-75
2020/12/02 12:16:58;;;;;;;4.80;4.30;;;;;;;;;;5065021;28;20666;-76
2020/12/02 12:19:32;;;;;;;7.80;4.82;;;;;;;;;;5050788;28;20195;-76
2020/12/02 12:22:06;;;;;;;5.18;4.47;;;;;;;;;;5053550;28;20204;-75
2020/12/02 12:24:32;;;;;;;8.23;4.57;;;;;;;;;;5063459;28;20185;-75
2020/12/02 12:26:58;;;;;;;5.28;4.43;;;;;;;;;;5062801;28;20286;-76
2020/12/02 12:29:24;;;;;;;9.05;5.15;;;;;;;;;;5066256;28;20203;-75
2020/12/02 12:31:52;;;;;;;12.60;8.57;;;;;;;;;;5064529;28;20169;-75
2020/12/02 12:34:30;;;;;;;6.85;5.80;;;;;;;;;;5064358;28;20443;-76
2020/12/02 12:36:58;;;;;;;10.48;6.75;;;;;;;;;;5062608;28;20350;-75
2020/12/02 12:39:30;;;;;;;6.53;5.22;;;;;;;;;;5065236;28;20234;-76
2020/12/02 12:41:56;;;;;;;9.20;5.35;;;;;;;;;;5064408;28;20224;-76
2020/12/02 12:44:28;;;;;;;6.78;4.85;;;;;;;;;;5063053;28;20185;-76
2020/12/02 12:47:10;;;;;;;9.10;6.03;;;;;;;;;;5059946;28;20666;-76
2020/12/02 12:49:36;;;;;;;9.23;7.03;;;;;;;;;;5056297;28;20182;-76
2020/12/02 12:52:02;;;;;;;11.52;6.38;;;;;;;;;;5053403;28;20616;-76
2020/12/02 12:54:29;;;;;;;9.68;5.72;;;;;;;;;;5060290;28;20182;-76
2020/12/02 12:56:56;;;;;;;10.60;5.72;;;;;;;;;;5056995;28;20214;-75
2020/12/02 12:59:23;;;;;;;7.43;4.60;;;;;;;;;;5054097;28;20595;-76
2020/12/02 13:01:51;;;;;;;9.60;5.47;;;;;;;;;;5061726;28;20185;-76
2020/12/02 13:04:19;;;;;;;5.60;4.93;;;;;;;;;;5055658;28;20186;-76
2020/12/02 13:07:04;;;;;;;9.90;4.55;;;;;;;;;;5056358;28;20182;-76
2020/12/02 13:09:39;;;;;;;6.65;5.45;;;;;;;;;;5055592;28;21144;-76
2020/12/02 13:12:10;;;;;;;6.45;5.00;;;;;;;;;;5051406;28;20178;-75
2020/12/02 13:14:46;;;;;;;7.07;4.82;;;;;;;;;;5052188;28;20194;-75
2020/12/02 13:17:25;;;;;;;9.40;5.93;;;;;;;;;;5063234;28;20236;-76
2020/12/02 13:19:57;;;;;;;8.13;4.50;;;;;;;;;;5063178;28;20185;-75
2020/12/02 13:22:28;;;;;;;5.60;4.55;;;;;;;;;;5059673;28;20189;-76
2020/12/02 13:24:58;;;;;;;5.95;4.47;;;;;;;;;;5059172;28;20599;-76
2020/12/02 13:27:44;;;;;;;8.32;6.30;;;;;;;;;;5063514;28;20192;-76
2020/12/02 13:30:30;;;;;;;4.60;3.85;;;;;;;;;;5063413;28;20188;-76
2020/12/02 13:33:03;;;;;;;5.60;3.88;;;;;;;;;;5064408;28;20213;-76
2020/12/02 13:35:29;;;;;;;5.40;4.07;;;;;;;;;;5062683;28;20308;-76
2020/12/02 13:37:59;;;;;;;11.52;4.20;;;;;;;;;;5063408;28;20203;-76
2020/12/02 13:40:26;;;;;;;8.63;5.35;;;;;;;;;;5060107;28;20388;-76
2020/12/02 13:42:52;;;;;;;9.90;6.80;;;;;;;;;;5051020;28;20190;-76
2020/12/02 13:45:25;;;;;;;7.53;5.53;;;;;;;;;;5056764;28;20182;-77
2020/12/02 13:47:52;;;;;;;7.22;6.35;;;;;;;;;;5055156;28;20586;-77
2020/12/02 13:50:23;;;;;;;6.97;5.68;;;;;;;;;;5056934;28;20207;-77
2020/12/02 13:53:05;;;;;;;8.40;5.38;;;;;;;;;;5063896;28;20200;-77
2020/12/02 13:55:34;;;;;;;10.70;5.80;;;;;;;;;;5062146;28;20188;-77
2020/12/02 13:58:36;;;;;;;9.18;4.53;;;;;;;;;;5062069;28;20227;-78
2020/12/02 14:01:12;;;;;;;9.60;4.85;;;;;;;;;;5028374;28;20185;-77
2020/12/02 14:03:47;;;;;;;4.97;4.30;;;;;;;;;;5004891;28;20190;-77
2020/12/02 14:06:28;;;;;;;6.60;4.20;;;;;;;;;;5003549;28;20324;-77
2020/12/02 14:08:55;;;;;;;8.25;5.82;;;;;;;;;;5016215;28;20193;-77
2020/12/02 14:11:32;;;;;;;13.38;6.95;;;;;;;;;;5017760;28;20269;-77
2020/12/02 14:13:58;;;;;;;9.80;7.68;;;;;;;;;;5005191;28;20621;-77
2020/12/02 14:16:24;;;;;;;14.57;8.98;;;;;;;;;;5019092;28;20198;-77
2020/12/02 14:18:50;;;;;;;12.75;8.05;;;;;;;;;;5005338;28;20187;-78
2020/12/02 14:21:16;;;;;;;7.15;5.70;;;;;;;;;;5015798;28;20535;-78
2020/12/02 14:23:42;;;;;;;14.35;7.55;;;;;;;;;;5015858;28;20276;-78
2020/12/02 14:26:08;;;;;;;16.73;8.60;;;;;;;;;;4996991;28;20189;-78
2020/12/02 14:28:34;;;;;;;12.70;8.18;;;;;;;;;;4992128;28;20186;-78
2020/12/02 14:31:00;;;;;;;8.05;5.85;;;;;;;;;;5006882;28;20210;-78
2020/12/02 14:33:27;;;;;;;11.97;6.00;;;;;;;;;;5021945;28;20240;-78
2020/12/02 14:35:53;;;;;;;11.43;6.50;;;;;;;;;;5056887;28;20459;-78
2020/12/02 14:38:21;;;;;;;8.07;5.95;;;;;;;;;;5061504;28;20239;-78
2020/12/02 14:40:49;;;;;;;6.53;5.45;;;;;;;;;;5062845;28;20201;-77
2020/12/02 14:43:16;;;;;;;9.65;5.85;;;;;;;;;;5061576;28;20193;-77
2020/12/02 14:45:43;;;;;;;8.80;5.15;;;;;;;;;;5062617;28;20185;-77
2020/12/02 14:48:09;;;;;;;7.72;6.07;;;;;;;;;;5055774;28;20209;-78
2020/12/02 14:50:35;;;;;;;8.25;6.80;;;;;;;;;;5057692;28;20216;-77
2020/12/02 14:53:02;;;;;;;7.70;5.95;;;;;;;;;;5057720;28;20180;-77
2020/12/02 14:55:28;;;;;;;8.90;5.57;;;;;;;;;;5059040;28;20185;-77